createdAt,value
2023-01-17T00:01:59.497Z,9.44
2023-01-17T00:04:44.784Z,9.47
2023-01-17T00:07:32.194Z,9.46
2023-01-17T00:10:01.080Z,9.44
2023-01-17T00:12:30.481Z,9.43
2023-01-17T00:14:58.756Z,9.40
2023-01-17T00:17:27.294Z,9.40
2023-01-17T00:20:13.535Z,9.39
2023-01-17T00:23:01.016Z,9.40
2023-01-17T00:25:56.309Z,9.35
2023-01-17T00:28:24.046Z,9.25
2023-01-17T00:30:50.574Z,9.26
2023-01-17T00:33:17.263Z,9.29
2023-01-17T00:35:44.222Z,9.30
2023-01-17T00:38:12.308Z,9.29
2023-01-17T00:40:41.077Z,9.29
2023-01-17T00:43:27.883Z,9.29
2023-01-17T00:46:13.280Z,9.33
2023-01-17T00:48:59.113Z,9.36
2023-01-17T00:51:45.032Z,9.38
2023-01-17T00:54:30.470Z,9.38
2023-01-17T00:57:15.623Z,9.35
2023-01-17T01:00:00.818Z,9.38
2023-01-17T01:02:46.514Z,9.36
2023-01-17T01:05:33.456Z,9.38
2023-01-17T01:08:18.916Z,9.33
2023-01-17T01:11:05.967Z,9.35
2023-01-17T01:13:51.833Z,9.25
2023-01-17T01:16:38.514Z,9.20
2023-01-17T01:19:24.473Z,9.20
2023-01-17T01:22:10.035Z,9.18
2023-01-17T01:24:55.210Z,9.20
2023-01-17T01:27:40.145Z,9.20
2023-01-17T01:30:26.147Z,9.22
2023-01-17T01:33:11.053Z,9.22
2023-01-17T01:35:37.646Z,9.20
2023-01-17T01:38:04.594Z,9.19
2023-01-17T01:40:31.196Z,9.23
2023-01-17T01:42:59.818Z,9.23
2023-01-17T01:45:28.913Z,9.20
2023-01-17T01:48:02.559Z,9.15
2023-01-17T01:50:31.256Z,9.09
2023-01-17T01:53:02.483Z,9.05
2023-01-17T01:55:33.491Z,9.00
2023-01-17T01:58:04.350Z,9.01
2023-01-17T02:00:35.968Z,9.02
2023-01-17T02:03:07.430Z,9.01
2023-01-17T02:05:35.374Z,9.01
2023-01-17T02:08:03.253Z,8.98
2023-01-17T02:10:37.864Z,9.07
2023-01-17T02:13:05.632Z,9.09
2023-01-17T02:15:58.716Z,9.12
2023-01-17T02:19:01.345Z,9.14
2023-01-17T02:21:38.547Z,9.12
2023-01-17T02:24:24.045Z,9.11
2023-01-17T02:27:24.427Z,9.02
2023-01-17T02:30:03.056Z,8.95
2023-01-17T02:32:45.177Z,8.93
2023-01-17T02:35:48.524Z,8.91
2023-01-17T02:38:38.935Z,8.88
2023-01-17T02:41:36.296Z,8.84
2023-01-17T02:44:03.783Z,8.75
2023-01-17T02:46:30.532Z,8.74
2023-01-17T02:48:58.380Z,8.80
2023-01-17T02:51:40.031Z,8.88
2023-01-17T02:54:15.817Z,8.95
2023-01-17T02:56:49.954Z,9.01
2023-01-17T02:59:38.564Z,9.04
2023-01-17T03:02:14.266Z,9.09
2023-01-17T03:04:55.839Z,9.15
2023-01-17T03:07:26.074Z,9.15
2023-01-17T03:09:59.448Z,9.18
2023-01-17T03:12:30.240Z,9.16
2023-01-17T03:14:57.240Z,9.19
2023-01-17T03:17:31.858Z,9.23
2023-01-17T03:19:58.877Z,9.26
2023-01-17T03:22:25.450Z,9.29
2023-01-17T03:24:52.108Z,9.30
2023-01-17T03:27:18.701Z,9.38
2023-01-17T03:29:45.293Z,9.40
2023-01-17T03:32:11.878Z,9.47
2023-01-17T03:34:38.466Z,9.50
2023-01-17T03:37:05.051Z,9.54
2023-01-17T03:39:31.589Z,9.58
2023-01-17T03:42:00.687Z,9.58
2023-01-17T03:44:27.255Z,9.61
2023-01-17T03:46:53.798Z,9.64
2023-01-17T03:49:20.885Z,9.64
2023-01-17T03:51:47.476Z,9.70
2023-01-17T03:54:14.114Z,9.71
2023-01-17T03:56:40.684Z,9.67
2023-01-17T03:59:07.273Z,9.70
2023-01-17T04:01:33.953Z,9.70
2023-01-17T04:04:00.652Z,9.73
2023-01-17T04:06:28.500Z,9.75
2023-01-17T04:08:55.086Z,9.75
2023-01-17T04:11:21.692Z,9.77
2023-01-17T04:13:48.270Z,9.77
2023-01-17T04:16:18.317Z,9.75
2023-01-17T04:18:44.992Z,9.77
2023-01-17T04:21:11.583Z,9.70
2023-01-17T04:23:38.477Z,9.70
2023-01-17T04:26:05.470Z,9.71
2023-01-17T04:28:32.120Z,9.71
2023-01-17T04:31:00.023Z,9.73
2023-01-17T04:33:26.961Z,9.73
2023-01-17T04:35:54.401Z,9.75
2023-01-17T04:38:23.798Z,9.75
2023-01-17T04:40:51.358Z,9.77
2023-01-17T04:43:17.963Z,9.77
2023-01-17T04:45:44.483Z,9.80
2023-01-17T04:48:12.760Z,9.78
2023-01-17T04:50:40.152Z,9.81
2023-01-17T04:53:06.786Z,9.81
2023-01-17T04:55:33.326Z,9.84
2023-01-17T04:57:59.929Z,9.88
2023-01-17T05:00:26.611Z,9.93
2023-01-17T05:02:53.430Z,10.01
2023-01-17T05:05:20.107Z,10.04
2023-01-17T05:07:54.015Z,10.08
2023-01-17T05:10:20.587Z,10.08
2023-01-17T05:12:55.021Z,10.06
2023-01-17T05:15:22.314Z,9.99
2023-01-17T05:17:50.128Z,9.99
2023-01-17T05:20:16.804Z,10.02
2023-01-17T05:22:43.444Z,10.01
2023-01-17T05:25:10.311Z,10.04
2023-01-17T05:27:37.290Z,10.06
2023-01-17T05:30:04.426Z,10.06
2023-01-17T05:32:31.113Z,10.05
2023-01-17T05:34:57.709Z,10.06
2023-01-17T05:37:24.352Z,9.99
2023-01-17T05:39:54.015Z,9.97
2023-01-17T05:42:20.591Z,9.98
2023-01-17T05:44:47.841Z,9.94
2023-01-17T05:47:14.408Z,9.90
2023-01-17T05:49:41.008Z,9.87
2023-01-17T05:52:07.555Z,9.87
2023-01-17T05:54:34.513Z,9.90
2023-01-17T05:57:01.089Z,9.97
2023-01-17T05:59:36.958Z,9.99
2023-01-17T06:02:04.282Z,10.05
2023-01-17T06:04:31.012Z,10.09
2023-01-17T06:06:57.655Z,10.12
2023-01-17T06:09:24.277Z,10.13
2023-01-17T06:11:50.859Z,10.15
2023-01-17T06:14:17.394Z,10.16
2023-01-17T06:16:43.964Z,10.19
2023-01-17T06:19:10.579Z,10.25
2023-01-17T06:21:37.312Z,10.25
2023-01-17T06:24:04.398Z,10.26
2023-01-17T06:26:32.169Z,10.23
2023-01-17T06:28:58.776Z,10.19
2023-01-17T06:31:25.382Z,10.13
2023-01-17T06:33:51.994Z,10.18
2023-01-17T06:36:18.575Z,10.19
2023-01-17T06:38:45.136Z,10.12
2023-01-17T06:41:11.656Z,10.05
2023-01-17T06:43:38.294Z,9.94
2023-01-17T06:46:05.027Z,9.87
2023-01-17T06:48:31.643Z,9.81
2023-01-17T06:50:58.378Z,9.73
2023-01-17T06:53:25.021Z,9.73
2023-01-17T06:55:52.600Z,9.70
2023-01-17T06:58:19.207Z,9.73
2023-01-17T07:00:45.905Z,9.77
2023-01-17T07:03:23.458Z,9.81
2023-01-17T07:05:50.775Z,9.88
2023-01-17T07:08:18.845Z,9.87
2023-01-17T07:10:46.716Z,9.83
2023-01-17T07:13:14.247Z,9.85
2023-01-17T07:15:40.842Z,9.81
2023-01-17T07:18:08.000Z,9.81
2023-01-17T07:20:34.639Z,9.78
2023-01-17T07:23:03.080Z,9.83
2023-01-17T07:25:29.679Z,9.84
2023-01-17T07:27:57.603Z,9.83
2023-01-17T07:30:24.908Z,9.83
2023-01-17T07:32:54.864Z,9.90
2023-01-17T07:35:22.981Z,9.88
2023-01-17T07:37:50.583Z,9.90
2023-01-17T07:40:20.634Z,9.99
2023-01-17T07:42:47.517Z,10.06
2023-01-17T07:45:16.019Z,10.09
2023-01-17T07:47:42.735Z,10.06
2023-01-17T07:50:10.100Z,10.06
2023-01-17T07:52:36.662Z,10.08
2023-01-17T07:55:03.438Z,10.13
2023-01-17T07:57:30.260Z,10.22
2023-01-17T07:59:56.845Z,10.23
2023-01-17T08:02:23.782Z,10.31
2023-01-17T08:04:50.376Z,10.39
2023-01-17T08:07:17.180Z,10.42
2023-01-17T08:09:44.790Z,10.46
2023-01-17T08:12:11.391Z,10.49
2023-01-17T08:14:37.960Z,10.55
2023-01-17T08:17:05.550Z,10.59
2023-01-17T08:19:32.154Z,10.61
2023-01-17T08:21:58.749Z,10.61
2023-01-17T08:24:25.290Z,10.63
2023-01-17T08:26:54.962Z,10.61
2023-01-17T08:29:21.663Z,10.60
2023-01-17T08:31:48.554Z,10.64
2023-01-17T08:34:15.229Z,10.61
2023-01-17T08:36:45.457Z,10.63
2023-01-17T08:39:13.089Z,10.59
2023-01-17T08:41:39.744Z,10.61
2023-01-17T08:44:06.475Z,10.60
2023-01-17T08:46:33.039Z,10.57
2023-01-17T08:49:00.184Z,10.56
2023-01-17T08:51:27.618Z,10.50
2023-01-17T08:53:55.718Z,10.46
2023-01-17T08:56:23.805Z,10.39
2023-01-17T08:58:50.379Z,10.31
2023-01-17T09:01:17.140Z,10.13
2023-01-17T09:03:43.911Z,10.09
2023-01-17T09:06:13.195Z,9.97
2023-01-17T09:08:40.554Z,9.97
2023-01-17T09:11:12.321Z,9.97
2023-01-17T09:13:39.779Z,9.94
2023-01-17T09:16:07.297Z,9.99
2023-01-17T09:18:36.121Z,9.94
2023-01-17T09:21:17.793Z,9.93
2023-01-17T09:23:44.956Z,9.85
2023-01-17T09:26:21.094Z,9.84
2023-01-17T09:28:48.120Z,9.85
2023-01-17T09:31:17.390Z,9.90
2023-01-17T09:33:44.253Z,9.93
2023-01-17T09:36:11.193Z,9.98
2023-01-17T09:38:38.366Z,9.94
2023-01-17T09:41:21.749Z,9.97
2023-01-17T09:44:06.268Z,9.93
2023-01-17T09:46:40.022Z,9.88
2023-01-17T09:49:34.905Z,9.93
2023-01-17T09:52:02.407Z,9.98
2023-01-17T09:54:35.556Z,9.97
2023-01-17T09:57:13.340Z,10.02
2023-01-17T10:00:04.149Z,10.06
2023-01-17T10:03:08.405Z,10.12
2023-01-17T10:05:40.657Z,10.11
2023-01-17T10:08:07.416Z,10.13
2023-01-17T10:10:34.053Z,10.11
2023-01-17T10:13:06.430Z,10.13
2023-01-17T10:16:24.289Z,10.09
2023-01-17T10:19:01.742Z,10.06
2023-01-17T10:21:55.107Z,10.08
2023-01-17T10:24:30.891Z,10.08
2023-01-17T10:26:59.022Z,10.05
2023-01-17T10:29:32.859Z,9.99
2023-01-17T10:32:01.047Z,9.93
2023-01-17T10:34:41.677Z,9.87
2023-01-17T10:37:30.659Z,9.93
2023-01-17T10:40:14.055Z,9.93
2023-01-17T10:43:07.245Z,10.01
2023-01-17T10:45:43.646Z,10.13
2023-01-17T10:48:29.614Z,10.22
2023-01-17T10:51:19.029Z,10.26
2023-01-17T10:54:08.878Z,10.28
2023-01-17T10:56:40.539Z,10.29
2023-01-17T10:59:32.448Z,10.33
2023-01-17T11:02:00.675Z,10.32
2023-01-17T11:04:38.918Z,10.33
2023-01-17T11:07:22.140Z,10.52
2023-01-17T11:09:54.060Z,10.60
2023-01-17T11:12:33.989Z,10.76
2023-01-17T11:15:25.950Z,10.74
2023-01-17T11:18:02.641Z,10.67
2023-01-17T11:20:38.439Z,10.61
2023-01-17T11:23:08.226Z,10.48
2023-01-17T11:25:35.348Z,10.32
2023-01-17T11:28:07.983Z,10.16
2023-01-17T11:30:34.857Z,10.04
2023-01-17T11:33:04.804Z,9.97
2023-01-17T11:35:33.089Z,9.83
2023-01-17T11:38:04.757Z,9.73
2023-01-17T11:40:38.456Z,9.70
2023-01-17T11:43:18.800Z,9.64
2023-01-17T11:45:47.667Z,9.56
2023-01-17T11:48:17.818Z,9.46
2023-01-17T11:50:58.660Z,9.46
2023-01-17T11:53:33.332Z,9.46
2023-01-17T11:56:11.951Z,9.47
2023-01-17T11:58:42.780Z,9.47
2023-01-17T12:01:29.873Z,9.50
2023-01-17T12:04:22.822Z,9.58
2023-01-17T12:07:08.009Z,9.61
2023-01-17T12:09:49.599Z,9.66
2023-01-17T12:12:43.482Z,9.71
2023-01-17T12:15:23.343Z,9.74
2023-01-17T12:18:22.279Z,9.77
2023-01-17T12:21:03.341Z,9.78
2023-01-17T12:23:41.942Z,9.85
2023-01-17T12:26:39.339Z,9.91
2023-01-17T12:29:23.999Z,9.90
2023-01-17T12:32:13.323Z,9.85
2023-01-17T12:34:47.496Z,9.88
2023-01-17T12:37:19.887Z,9.94
2023-01-17T12:39:56.961Z,10.02
2023-01-17T12:42:28.292Z,10.04
2023-01-17T12:45:15.276Z,10.11
2023-01-17T12:47:54.472Z,10.13
2023-01-17T12:50:30.981Z,10.18
2023-01-17T12:53:36.457Z,10.21
2023-01-17T12:56:09.043Z,10.21
2023-01-17T12:59:15.753Z,10.18
2023-01-17T13:01:57.371Z,10.08
2023-01-17T13:04:57.423Z,10.04
2023-01-17T13:07:53.351Z,9.97
2023-01-17T13:10:51.212Z,9.93
2023-01-17T13:13:24.253Z,9.84
2023-01-17T13:16:00.705Z,9.84
2023-01-17T13:18:29.899Z,9.77
2023-01-17T13:21:21.379Z,9.78
2023-01-17T13:23:59.101Z,9.70
2023-01-17T13:26:46.810Z,9.69
2023-01-17T13:29:39.894Z,9.63
2023-01-17T13:32:34.046Z,9.60
2023-01-17T13:35:22.685Z,9.60
2023-01-17T13:37:55.133Z,9.58
2023-01-17T13:40:34.456Z,9.63
2023-01-17T13:43:03.113Z,9.63
2023-01-17T13:45:32.373Z,9.64
2023-01-17T13:48:23.353Z,9.67
2023-01-17T13:50:58.139Z,9.77
2023-01-17T13:53:27.588Z,9.78
2023-01-17T13:56:23.173Z,9.90
2023-01-17T13:58:54.660Z,9.97
2023-01-17T14:01:24.600Z,10.04
2023-01-17T14:03:51.577Z,10.05
2023-01-17T14:06:55.637Z,10.04
2023-01-17T14:09:26.133Z,10.04
2023-01-17T14:12:04.893Z,10.08
2023-01-17T14:14:40.623Z,10.06
2023-01-17T14:17:16.364Z,10.02
2023-01-17T14:19:48.510Z,10.01
2023-01-17T14:22:26.734Z,10.04
2023-01-17T14:25:11.607Z,9.99
2023-01-17T14:27:53.590Z,9.95
2023-01-17T14:30:35.317Z,9.90
2023-01-17T14:33:01.934Z,9.81
2023-01-17T14:35:32.897Z,9.85
2023-01-17T14:38:05.351Z,9.75
2023-01-17T14:40:34.311Z,9.67
2023-01-17T14:43:05.705Z,9.60
2023-01-17T14:45:35.191Z,9.53
2023-01-17T14:48:05.970Z,9.54
2023-01-17T14:50:38.052Z,9.53
2023-01-17T14:53:18.026Z,9.56
2023-01-17T14:55:47.384Z,9.49
2023-01-17T14:58:28.492Z,9.44
2023-01-17T15:01:04.672Z,9.47
2023-01-17T15:03:41.012Z,9.46
2023-01-17T15:06:15.757Z,9.49
2023-01-17T15:08:42.397Z,9.51
2023-01-17T15:11:16.868Z,9.54
2023-01-17T15:13:49.846Z,9.54
2023-01-17T15:16:21.216Z,9.50
2023-01-17T15:18:48.345Z,9.42
2023-01-17T15:21:21.267Z,9.42
2023-01-17T15:23:54.738Z,9.33
2023-01-17T15:26:24.782Z,9.32
2023-01-17T15:28:53.429Z,9.32
2023-01-17T15:31:22.992Z,9.26
2023-01-17T15:33:55.832Z,9.16
2023-01-17T15:36:32.592Z,9.08
2023-01-17T15:39:07.195Z,8.93
2023-01-17T15:41:36.210Z,8.84
2023-01-17T15:44:04.883Z,8.77
2023-01-17T15:46:43.259Z,8.71
2023-01-17T15:49:18.111Z,8.70
2023-01-17T15:51:47.140Z,8.70
2023-01-17T15:54:32.965Z,8.65
2023-01-17T15:57:14.692Z,8.64
2023-01-17T15:59:46.359Z,8.67
2023-01-17T16:02:33.045Z,8.63
2023-01-17T16:05:02.031Z,8.60
2023-01-17T16:07:35.891Z,8.50
2023-01-17T16:10:17.689Z,8.53
2023-01-17T16:12:48.380Z,8.53
2023-01-17T16:15:18.339Z,8.52
2023-01-17T16:17:48.001Z,8.54
2023-01-17T16:20:22.198Z,8.59
2023-01-17T16:22:49.831Z,8.63
2023-01-17T16:25:19.566Z,8.63
2023-01-17T16:27:46.539Z,8.63
2023-01-17T16:30:18.950Z,8.59
2023-01-17T16:32:48.517Z,8.57
2023-01-17T16:35:19.215Z,8.54
2023-01-17T16:37:51.208Z,8.53
2023-01-17T16:40:19.931Z,8.57
2023-01-17T16:42:47.044Z,8.60
2023-01-17T16:45:14.554Z,8.63
2023-01-17T16:47:45.912Z,8.71
2023-01-17T16:50:14.789Z,8.73
2023-01-17T16:52:41.474Z,8.78
2023-01-17T16:55:15.019Z,8.80
2023-01-17T16:57:42.095Z,8.82
2023-01-17T17:00:10.782Z,8.78
2023-01-17T17:02:39.056Z,8.75
2023-01-17T17:05:08.471Z,8.70
2023-01-17T17:07:46.328Z,8.75
2023-01-17T17:10:14.815Z,8.64
2023-01-17T17:12:41.581Z,8.56
2023-01-17T17:15:09.537Z,8.53
2023-01-17T17:17:41.349Z,8.52
2023-01-17T17:20:13.049Z,8.46
2023-01-17T17:22:48.936Z,8.44
2023-01-17T17:25:16.081Z,8.54
2023-01-17T17:27:43.302Z,8.54
2023-01-17T17:30:10.772Z,8.56
2023-01-17T17:32:37.385Z,8.57
2023-01-17T17:35:04.451Z,8.60
2023-01-17T17:37:31.030Z,8.60
2023-01-17T17:39:58.045Z,8.49
2023-01-17T17:42:24.700Z,8.53
2023-01-17T17:44:51.389Z,8.50
2023-01-17T17:47:18.039Z,8.46
2023-01-17T17:49:44.639Z,8.40
2023-01-17T17:52:11.381Z,8.36
2023-01-17T17:54:38.036Z,8.26
2023-01-17T17:57:04.773Z,8.28
2023-01-17T17:59:31.360Z,8.29
2023-01-17T18:01:59.760Z,8.30
2023-01-17T18:04:27.176Z,8.32
2023-01-17T18:06:57.906Z,8.30
2023-01-17T18:09:24.811Z,8.28
2023-01-17T18:11:51.517Z,8.29
2023-01-17T18:14:21.019Z,8.29
2023-01-17T18:16:50.152Z,8.36
2023-01-17T18:19:23.163Z,8.32
2023-01-17T18:21:51.419Z,8.32
2023-01-17T18:24:20.975Z,8.30
2023-01-17T18:26:52.626Z,8.30
2023-01-17T18:29:21.126Z,8.26
2023-01-17T18:31:51.988Z,8.24
2023-01-17T18:34:24.385Z,8.28
2023-01-17T18:36:51.547Z,8.25
2023-01-17T18:39:24.635Z,8.22
2023-01-17T18:41:51.768Z,8.21
2023-01-17T18:44:21.826Z,8.19
2023-01-17T18:46:50.368Z,8.24
2023-01-17T18:49:19.312Z,8.18
2023-01-17T18:51:50.454Z,8.18
2023-01-17T18:54:18.768Z,8.18
2023-01-17T18:56:45.539Z,8.18
2023-01-17T18:59:13.420Z,8.21
2023-01-17T19:01:43.833Z,8.26
2023-01-17T19:04:11.835Z,8.28
2023-01-17T19:06:41.625Z,8.25
2023-01-17T19:09:09.345Z,8.21
2023-01-17T19:11:36.890Z,8.18
2023-01-17T19:14:05.026Z,8.13
2023-01-17T19:16:35.707Z,8.15
2023-01-17T19:19:05.620Z,8.19
2023-01-17T19:21:32.636Z,8.24
2023-01-17T19:23:59.838Z,8.21
2023-01-17T19:26:27.807Z,8.28
2023-01-17T19:28:56.264Z,8.33
2023-01-17T19:31:25.317Z,8.35
2023-01-17T19:33:54.412Z,8.35
2023-01-17T19:36:25.704Z,8.32
2023-01-17T19:39:04.033Z,8.36
2023-01-17T19:41:33.036Z,8.37
2023-01-17T19:44:02.291Z,8.40
2023-01-17T19:46:28.931Z,8.35
2023-01-17T19:48:56.908Z,8.37
2023-01-17T19:51:24.932Z,8.35
2023-01-17T19:53:51.635Z,8.30
2023-01-17T19:56:24.159Z,8.28
2023-01-17T19:58:52.147Z,8.28
2023-01-17T20:01:22.149Z,8.26
2023-01-17T20:03:50.273Z,8.22
2023-01-17T20:06:23.050Z,8.19
2023-01-17T20:08:50.064Z,8.16
2023-01-17T20:11:19.767Z,8.13
2023-01-17T20:13:47.844Z,8.12
2023-01-17T20:16:16.325Z,8.08
2023-01-17T20:18:43.192Z,7.97
2023-01-17T20:21:24.160Z,7.88
2023-01-17T20:23:51.667Z,7.80
2023-01-17T20:26:21.112Z,7.82
2023-01-17T20:28:49.702Z,7.78
2023-01-17T20:31:20.497Z,7.81
2023-01-17T20:33:50.341Z,7.80
2023-01-17T20:36:18.475Z,7.77
2023-01-17T20:38:45.567Z,7.77
2023-01-17T20:41:16.550Z,7.82
2023-01-17T20:43:44.895Z,7.81
2023-01-17T20:46:12.404Z,7.88
2023-01-17T20:48:44.313Z,7.82
2023-01-17T20:51:11.726Z,7.77
2023-01-17T20:53:40.151Z,7.75
2023-01-17T20:56:08.794Z,7.71
2023-01-17T20:58:35.907Z,7.77
2023-01-17T21:01:02.632Z,7.73
2023-01-17T21:03:29.404Z,7.70
2023-01-17T21:06:06.011Z,7.63
2023-01-17T21:08:37.717Z,7.59
2023-01-17T21:11:06.073Z,7.59
2023-01-17T21:13:32.738Z,7.57
2023-01-17T21:15:59.884Z,7.57
2023-01-17T21:18:28.493Z,7.63
2023-01-17T21:20:55.087Z,7.70
2023-01-17T21:23:23.554Z,7.70
2023-01-17T21:25:57.209Z,7.73
2023-01-17T21:28:29.562Z,7.74
2023-01-17T21:30:57.263Z,7.78
2023-01-17T21:33:25.858Z,7.73
2023-01-17T21:35:52.543Z,7.75
2023-01-17T21:38:19.291Z,7.74
2023-01-17T21:40:45.969Z,7.74
2023-01-17T21:43:12.900Z,7.73
2023-01-17T21:45:40.891Z,7.82
2023-01-17T21:48:12.216Z,7.82
2023-01-17T21:50:39.161Z,7.82
2023-01-17T21:53:05.967Z,7.82
2023-01-17T21:55:51.298Z,7.81
2023-01-17T21:58:36.837Z,7.84
2023-01-17T22:01:17.829Z,7.88
2023-01-17T22:03:55.473Z,7.88
2023-01-17T22:06:24.567Z,7.91
2023-01-17T22:08:51.160Z,7.95
2023-01-17T22:11:20.912Z,7.91
2023-01-17T22:13:47.824Z,7.97
2023-01-17T22:16:17.315Z,7.99
2023-01-17T22:18:45.059Z,7.97
2023-01-17T22:21:17.677Z,7.94
2023-01-17T22:23:57.982Z,7.94
2023-01-17T22:26:27.300Z,7.89
2023-01-17T22:28:54.897Z,7.92
2023-01-17T22:31:26.640Z,7.88
2023-01-17T22:33:59.525Z,7.84
2023-01-17T22:36:26.826Z,7.75
2023-01-17T22:38:53.658Z,7.74
2023-01-17T22:41:23.902Z,7.73
2023-01-17T22:43:53.301Z,7.78
2023-01-17T22:46:25.823Z,7.73
2023-01-17T22:48:53.747Z,7.70
2023-01-17T22:51:22.148Z,7.70
2023-01-17T22:53:51.162Z,7.71
2023-01-17T22:56:26.545Z,7.73
2023-01-17T22:58:53.663Z,7.71
2023-01-17T23:01:22.718Z,7.70
2023-01-17T23:03:54.479Z,7.54
2023-01-17T23:06:27.325Z,7.47
2023-01-17T23:08:57.994Z,7.46
2023-01-17T23:11:39.842Z,7.39
2023-01-17T23:14:22.724Z,7.33
2023-01-17T23:17:28.217Z,7.32
2023-01-17T23:19:54.807Z,7.32
2023-01-17T23:22:24.566Z,7.26
2023-01-17T23:24:53.671Z,7.29
2023-01-17T23:27:47.671Z,7.33
2023-01-17T23:30:20.694Z,7.37
2023-01-17T23:32:56.727Z,7.36
2023-01-17T23:35:26.585Z,7.33
2023-01-17T23:38:12.059Z,7.36
2023-01-17T23:40:39.403Z,7.39
2023-01-17T23:43:24.741Z,7.36
2023-01-17T23:45:53.402Z,7.26
2023-01-17T23:48:21.099Z,7.25
2023-01-17T23:50:48.688Z,7.26
2023-01-17T23:53:22.497Z,7.22
2023-01-17T23:55:56.893Z,7.23
2023-01-17T23:58:25.839Z,7.26
